Time;durP1;ratioP1;P1;durP2;ratioP2;P2;SDS_P1;SDS_P2;PMS_P1;PMS_P2;Temp;Humidity;BMP_temperature;BMP_pressure;BME280_temperature;BME280_humidity;BME280_pressure;Samples;Min_cycle;Max_cycle;Signal;HPM_P1;HPM_P2
2023/08/18 00:02:06;;;;;;;10.77;7.78;;;;;;;22.82;70.29;101948.81;5070244;28;20053;-48
2023/08/18 00:04:31;;;;;;;10.52;8.20;;;;;;;22.55;71.23;101942.22;5069198;28;20170;-46
2023/08/18 00:06:57;;;;;;;10.85;8.70;;;;;;;22.73;70.32;101943.69;5070088;28;20067;-46
2023/08/18 00:09:22;;;;;;;12.07;8.55;;;;;;;22.72;70.65;101947.25;5069427;28;20155;-44
2023/08/18 00:11:48;;;;;;;9.95;8.00;;;;;;;22.83;70.43;101939.91;5069876;28;20057;-43
2023/08/18 00:14:13;;;;;;;13.15;8.13;;;;;;;22.95;70.09;101939.66;5068861;28;20032;-47
2023/08/18 00:16:39;;;;;;;11.07;8.93;;;;;;;22.73;70.58;101935.72;5070047;28;20071;-43
2023/08/18 00:19:04;;;;;;;13.05;8.52;;;;;;;22.80;70.45;101940.00;5069452;28;20044;-46
2023/08/18 00:21:29;;;;;;;11.18;8.75;;;;;;;22.81;70.57;101938.22;5068986;28;20082;-48
2023/08/18 00:23:54;;;;;;;9.98;8.10;;;;;;;22.78;70.55;101928.50;5069128;28;20036;-45
2023/08/18 00:26:20;;;;;;;9.27;7.50;;;;;;;22.84;70.02;101924.84;5069447;28;20091;-44
2023/08/18 00:28:45;;;;;;;11.63;8.13;;;;;;;22.65;70.97;101921.66;5069538;28;20376;-44
2023/08/18 00:31:10;;;;;;;11.13;8.60;;;;;;;22.32;71.87;101923.19;5069406;28;20491;-44
2023/08/18 00:33:36;;;;;;;9.55;7.63;;;;;;;22.57;70.48;101913.81;5068968;28;20494;-47
2023/08/18 00:36:01;;;;;;;10.45;8.23;;;;;;;22.42;71.66;101921.22;5069695;28;20449;-45
2023/08/18 00:38:26;;;;;;;11.15;7.97;;;;;;;22.58;70.66;101909.38;5068707;28;20036;-43
2023/08/18 00:40:52;;;;;;;10.25;8.07;;;;;;;22.54;70.99;101913.91;5069847;28;20406;-47
2023/08/18 00:43:17;;;;;;;12.15;8.40;;;;;;;22.44;71.07;101915.00;5069964;28;20576;-46
2023/08/18 00:45:43;;;;;;;10.65;7.93;;;;;;;22.57;70.79;101919.13;5070128;28;20051;-46
2023/08/18 00:48:09;;;;;;;9.85;7.95;;;;;;;22.57;70.47;101918.25;5080026;28;20040;-49
2023/08/18 00:50:35;;;;;;;9.95;7.53;;;;;;;22.22;71.62;101922.47;5091149;28;20025;-49
2023/08/18 00:53:00;;;;;;;8.27;6.97;;;;;;;22.56;70.68;101916.53;5085498;28;20040;-43
2023/08/18 00:55:27;;;;;;;10.80;8.05;;;;;;;22.60;70.47;101918.22;5074094;28;20385;-45
2023/08/18 00:57:55;;;;;;;8.77;7.50;;;;;;;22.64;70.10;101914.56;5070714;28;20033;-43
2023/08/18 01:00:23;;;;;;;9.65;7.88;;;;;;;22.57;70.54;101912.94;5070070;28;20586;-45
2023/08/18 01:02:52;;;;;;;11.05;7.90;;;;;;;22.22;70.71;101917.16;5069733;28;20495;-44
2023/08/18 01:05:18;;;;;;;9.88;7.60;;;;;;;22.58;69.98;101904.94;5068858;28;20115;-50
2023/08/18 01:07:44;;;;;;;9.65;7.53;;;;;;;22.65;69.12;101906.56;5069348;28;20135;-51
2023/08/18 01:10:09;;;;;;;9.27;7.50;;;;;;;22.71;69.22;101905.56;5067819;28;20112;-52
2023/08/18 01:12:40;;;;;;;9.35;7.43;;;;;;;22.85;68.84;101906.22;5068922;28;20501;-47
2023/08/18 01:15:16;;;;;;;9.93;6.90;;;;;;;22.85;68.58;101906.22;5068873;28;20047;-47
2023/08/18 01:18:01;;;;;;;8.90;7.30;;;;;;;22.72;68.99;101901.13;5068972;28;20040;-49
2023/08/18 01:20:27;;;;;;;9.20;7.10;;;;;;;22.74;68.69;101913.53;5068525;28;20035;-46
2023/08/18 01:22:56;;;;;;;11.38;8.10;;;;;;;22.48;69.32;101907.81;5054543;28;20044;-44
2023/08/18 01:25:22;;;;;;;9.20;7.15;;;;;;;22.69;68.74;101912.69;5048035;28;20044;-44
2023/08/18 01:27:48;;;;;;;9.70;7.70;;;;;;;22.60;68.93;101915.56;5048760;28;20041;-45
2023/08/18 01:30:14;;;;;;;8.73;7.13;;;;;;;22.82;68.15;101910.69;5048232;28;20034;-44
2023/08/18 01:32:46;;;;;;;9.13;7.45;;;;;;;22.40;69.56;101912.41;5048799;28;20480;-43
2023/08/18 01:35:12;;;;;;;9.27;7.63;;;;;;;22.45;68.68;101906.09;5047863;28;20588;-44
2023/08/18 01:37:40;;;;;;;9.60;7.20;;;;;;;22.53;68.77;101908.59;5049104;28;20398;-46
2023/08/18 01:40:08;;;;;;;9.65;7.22;;;;;;;22.61;68.39;101904.03;5048964;28;20499;-44
2023/08/18 01:42:34;;;;;;;10.05;7.53;;;;;;;22.25;69.31;101902.94;5048321;28;20029;-46
2023/08/18 01:45:02;;;;;;;9.73;7.57;;;;;;;22.38;69.03;101906.25;5048122;28;20037;-46
2023/08/18 01:47:27;;;;;;;8.43;6.82;;;;;;;22.68;67.73;101908.31;5048379;28;20166;-45
2023/08/18 01:49:53;;;;;;;11.48;7.25;;;;;;;22.57;67.98;101899.66;5051013;28;20120;-46
2023/08/18 01:52:18;;;;;;;9.35;6.93;;;;;;;22.54;67.92;101894.41;5052896;28;20113;-45
2023/08/18 01:54:43;;;;;;;8.07;6.78;;;;;;;22.30;68.32;101886.91;5052628;28;20691;-52
2023/08/18 01:57:09;;;;;;;9.02;7.38;;;;;;;22.25;68.62;101892.31;5053558;28;20118;-46
2023/08/18 01:59:34;;;;;;;9.55;7.10;;;;;;;22.43;67.96;101894.63;5071817;28;20035;-44
2023/08/18 02:01:59;;;;;;;8.52;6.95;;;;;;;22.18;68.57;101896.00;5072426;28;20451;-43
2023/08/18 02:04:25;;;;;;;9.02;7.05;;;;;;;22.45;67.95;101890.16;5071473;28;20120;-45
2023/08/18 02:06:50;;;;;;;9.23;7.25;;;;;;;22.29;68.62;101891.34;5072231;28;20048;-49
2023/08/18 02:09:15;;;;;;;8.27;6.22;;;;;;;22.39;68.12;101887.59;5071933;28;20028;-44
2023/08/18 02:11:41;;;;;;;8.25;6.55;;;;;;;22.45;68.22;101882.16;5072073;28;20043;-43
2023/08/18 02:14:06;;;;;;;10.93;6.75;;;;;;;22.44;67.96;101888.41;5071922;28;20067;-44
2023/08/18 02:16:31;;;;;;;10.25;7.30;;;;;;;22.34;68.33;101876.19;5072036;28;20089;-48
2023/08/18 02:18:56;;;;;;;9.60;6.90;;;;;;;22.29;68.27;101874.53;5072439;28;20086;-49
2023/08/18 02:21:22;;;;;;;9.75;6.95;;;;;;;21.73;70.46;101868.44;5072211;28;20395;-45
2023/08/18 02:23:47;;;;;;;9.35;7.22;;;;;;;21.67;70.47;101864.09;5073601;28;20693;-47
2023/08/18 02:26:13;;;;;;;9.88;7.45;;;;;;;21.79;70.19;101869.19;5072329;28;20035;-44
2023/08/18 02:28:38;;;;;;;10.18;7.20;;;;;;;21.80;70.36;101878.91;5074159;28;20032;-46
2023/08/18 02:31:05;;;;;;;10.48;7.35;;;;;;;21.84;70.21;101870.00;5073632;28;20048;-44
2023/08/18 02:33:32;;;;;;;9.95;7.38;;;;;;;21.81;70.35;101872.72;5073111;28;20067;-44
2023/08/18 02:36:01;;;;;;;8.95;6.78;;;;;;;21.62;71.04;101867.72;5074243;28;20077;-44
2023/08/18 02:38:27;;;;;;;9.52;6.47;;;;;;;21.76;70.16;101863.09;5074042;28;20093;-43
2023/08/18 02:40:53;;;;;;;10.32;7.18;;;;;;;21.68;70.84;101860.56;5075982;28;20110;-44
2023/08/18 02:43:19;;;;;;;9.07;7.20;;;;;;;21.63;71.38;101859.75;5075049;28;20116;-45
2023/08/18 02:45:45;;;;;;;10.85;7.22;;;;;;;21.43;72.27;101862.72;5074641;28;20044;-44
2023/08/18 02:48:11;;;;;;;9.05;7.07;;;;;;;21.64;71.91;101855.34;5074567;28;20119;-46
2023/08/18 02:50:38;;;;;;;9.38;7.30;;;;;;;21.52;72.59;101848.44;5072035;28;20505;-44
2023/08/18 02:53:03;;;;;;;8.55;6.88;;;;;;;21.56;72.33;101844.84;5072743;28;20043;-43
2023/08/18 02:55:29;;;;;;;9.27;7.35;;;;;;;21.71;72.00;101838.41;5070614;28;20035;-47
2023/08/18 02:57:55;;;;;;;10.00;7.60;;;;;;;21.57;71.89;101843.94;5071443;28;20033;-48
2023/08/18 03:00:20;;;;;;;11.38;7.47;;;;;;;21.64;72.19;101839.41;5070168;28;20067;-46
2023/08/18 03:02:46;;;;;;;9.15;7.13;;;;;;;21.44;72.79;101835.31;5071260;28;20107;-43
2023/08/18 03:05:12;;;;;;;9.43;7.18;;;;;;;21.54;72.87;101848.41;5070033;28;20052;-44
2023/08/18 03:07:37;;;;;;;11.35;7.40;;;;;;;21.66;72.01;101851.72;5071318;28;20025;-46
2023/08/18 03:10:03;;;;;;;9.60;7.45;;;;;;;21.52;72.40;101832.53;5070980;28;20037;-43
2023/08/18 03:12:28;;;;;;;10.65;7.82;;;;;;;21.38;72.73;101831.88;5070777;28;20032;-49
2023/08/18 03:14:54;;;;;;;13.25;7.43;;;;;;;21.29;73.18;101826.69;5070549;28;20041;-49
2023/08/18 03:17:20;;;;;;;11.13;7.13;;;;;;;21.34;72.67;101820.44;5069080;28;20032;-45
2023/08/18 03:19:45;;;;;;;8.73;7.15;;;;;;;21.47;72.49;101823.75;5070584;28;20047;-47
2023/08/18 03:22:11;;;;;;;9.60;7.45;;;;;;;21.34;72.84;101827.53;5070867;28;20036;-44
2023/08/18 03:24:36;;;;;;;11.10;8.10;;;;;;;21.30;72.98;101831.09;5070021;28;20036;-43
2023/08/18 03:27:02;;;;;;;9.55;7.32;;;;;;;21.34;72.96;101817.78;5071011;28;20037;-49
2023/08/18 03:29:27;;;;;;;12.38;8.43;;;;;;;21.27;73.50;101818.78;5069568;28;20074;-44
2023/08/18 03:31:52;;;;;;;10.93;8.00;;;;;;;21.30;73.44;101824.03;5070985;28;20032;-44
2023/08/18 03:34:18;;;;;;;10.68;8.15;;;;;;;21.44;72.74;101819.38;5070067;28;20047;-50
2023/08/18 03:36:43;;;;;;;11.43;8.07;;;;;;;21.29;73.04;101821.38;5070532;28;20470;-45
2023/08/18 03:39:08;;;;;;;11.55;8.02;;;;;;;21.02;74.00;101830.63;5070165;28;20556;-49
2023/08/18 03:41:34;;;;;;;11.05;8.07;;;;;;;21.20;73.68;101827.72;5069938;28;20032;-44
2023/08/18 03:43:59;;;;;;;10.18;8.05;;;;;;;21.43;72.56;101833.53;5069469;28;20056;-45
2023/08/18 03:46:28;;;;;;;10.75;8.10;;;;;;;21.55;72.35;101835.13;5069552;28;20492;-49
2023/08/18 03:48:54;;;;;;;10.95;7.63;;;;;;;21.69;71.74;101843.72;5070093;28;20036;-45
2023/08/18 03:51:20;;;;;;;10.82;7.82;;;;;;;21.46;72.59;101837.94;5069532;28;20414;-48
2023/08/18 03:53:46;;;;;;;9.45;7.47;;;;;;;21.42;72.21;101837.09;5069661;28;20044;-44
2023/08/18 03:56:11;;;;;;;8.73;6.72;;;;;;;21.56;72.20;101828.03;5069719;28;20032;-49
2023/08/18 03:58:36;;;;;;;8.77;7.07;;;;;;;21.42;72.49;101833.56;5070048;28;20033;-44
2023/08/18 04:01:04;;;;;;;11.45;7.38;;;;;;;21.51;72.08;101830.78;5070041;28;20063;-44
2023/08/18 04:03:30;;;;;;;9.52;7.13;;;;;;;21.66;71.39;101826.97;5069112;28;20082;-49
2023/08/18 04:05:56;;;;;;;9.05;6.47;;;;;;;21.58;71.87;101832.44;5069400;28;20111;-48
2023/08/18 04:08:21;;;;;;;8.50;6.72;;;;;;;21.41;72.35;101832.69;5069198;28;20444;-41
2023/08/18 04:10:46;;;;;;;9.10;6.88;;;;;;;21.71;71.18;101833.09;5069731;28;20415;-43
2023/08/18 04:13:13;;;;;;;9.98;6.90;;;;;;;21.52;71.83;101832.53;5069224;28;20427;-44
2023/08/18 04:15:38;;;;;;;9.23;6.80;;;;;;;21.56;71.99;101834.22;5069206;28;20036;-46
2023/08/18 04:18:04;;;;;;;9.25;6.15;;;;;;;21.69;71.87;101835.78;5069996;28;20048;-46
2023/08/18 04:20:29;;;;;;;10.98;7.05;;;;;;;21.70;71.47;101832.22;5069063;28;20040;-44
2023/08/18 04:22:55;;;;;;;10.07;6.82;;;;;;;21.49;72.16;101842.28;5069703;28;20140;-42
2023/08/18 04:25:21;;;;;;;8.00;6.47;;;;;;;21.63;71.93;101837.66;5068501;28;20033;-44
2023/08/18 04:27:46;;;;;;;10.15;7.03;;;;;;;21.21;73.12;101837.44;5069840;28;20039;-49
2023/08/18 04:30:13;;;;;;;10.50;6.95;;;;;;;21.45;72.14;101839.72;5069262;28;20036;-45
2023/08/18 04:32:38;;;;;;;11.27;6.85;;;;;;;21.45;72.38;101833.53;5068281;28;20185;-46
2023/08/18 04:35:04;;;;;;;9.05;6.38;;;;;;;21.53;72.19;101844.03;5069171;28;20135;-46
2023/08/18 04:37:30;;;;;;;10.48;6.68;;;;;;;21.36;73.13;101841.63;5069157;28;20156;-48
2023/08/18 04:39:55;;;;;;;8.63;6.40;;;;;;;21.32;72.93;101840.81;5069414;28;20041;-48
2023/08/18 04:42:20;;;;;;;8.45;6.53;;;;;;;21.42;72.69;101844.16;5069133;28;20036;-43
2023/08/18 04:44:46;;;;;;;9.57;6.47;;;;;;;21.33;73.15;101852.28;5068873;28;20037;-45
2023/08/18 04:47:11;;;;;;;7.97;6.13;;;;;;;21.42;72.89;101845.06;5069307;28;20040;-44
2023/08/18 04:49:36;;;;;;;7.90;5.82;;;;;;;21.58;72.11;101847.47;5069552;28;20054;-46
2023/08/18 04:52:02;;;;;;;9.18;5.80;;;;;;;21.64;72.14;101852.69;5068494;28;20037;-48
2023/08/18 04:54:28;;;;;;;8.60;5.80;;;;;;;21.61;72.18;101850.06;5067015;28;20040;-47
2023/08/18 04:56:59;;;;;;;9.38;6.20;;;;;;;21.25;73.51;101841.78;5069498;28;20028;-43
2023/08/18 04:59:26;;;;;;;7.75;5.80;;;;;;;21.40;72.77;101848.66;5068718;28;20557;-44
2023/08/18 05:01:52;;;;;;;9.52;5.65;;;;;;;21.41;72.98;101839.75;5069254;28;20487;-44
2023/08/18 05:04:18;;;;;;;8.65;6.13;;;;;;;21.18;73.51;101834.81;5068659;28;20067;-44
2023/08/18 05:06:43;;;;;;;8.60;5.82;;;;;;;21.49;72.63;101842.28;5069804;28;20052;-44
2023/08/18 05:09:09;;;;;;;8.40;5.72;;;;;;;21.55;72.86;101845.72;5071257;28;20697;-47
2023/08/18 05:11:34;;;;;;;7.07;5.60;;;;;;;21.72;72.28;101841.00;5070397;28;20059;-44
2023/08/18 05:13:59;;;;;;;8.57;5.93;;;;;;;21.56;72.44;101841.31;5070660;28;20032;-47
2023/08/18 05:16:25;;;;;;;8.10;6.03;;;;;;;21.53;72.92;101839.56;5070057;28;20495;-49
2023/08/18 05:18:50;;;;;;;7.40;5.50;;;;;;;21.25;73.63;101831.19;5070003;28;20499;-44
2023/08/18 05:21:15;;;;;;;7.68;5.25;;;;;;;21.40;73.14;101825.66;5068982;28;20036;-46
2023/08/18 05:23:41;;;;;;;8.80;5.50;;;;;;;21.45;72.93;101826.44;5069485;28;20039;-43
2023/08/18 05:26:07;;;;;;;6.45;4.85;;;;;;;21.43;72.83;101830.00;5073757;28;20049;-45
2023/08/18 05:28:32;;;;;;;8.23;5.40;;;;;;;21.35;72.67;101822.16;5072838;28;20040;-44
2023/08/18 05:30:58;;;;;;;7.18;5.13;;;;;;;21.65;72.10;101825.25;5073115;28;20513;-47
2023/08/18 05:33:23;;;;;;;8.60;5.35;;;;;;;21.31;72.64;101825.78;5072642;28;20093;-44
2023/08/18 05:35:48;;;;;;;7.13;5.25;;;;;;;21.58;71.87;101831.56;5071394;28;20428;-43
2023/08/18 05:38:14;;;;;;;6.68;4.95;;;;;;;21.43;72.45;101819.41;5073040;28;20530;-47
2023/08/18 05:40:48;;;;;;;7.80;5.45;;;;;;;21.59;71.91;101822.69;5073056;28;20491;-43
2023/08/18 05:43:15;;;;;;;7.93;5.30;;;;;;;21.20;73.19;101821.53;5072467;28;20037;-49
2023/08/18 05:45:42;;;;;;;7.80;5.32;;;;;;;21.47;72.43;101823.75;5072275;28;20035;-49
2023/08/18 05:48:07;;;;;;;8.00;5.35;;;;;;;21.44;72.27;101821.16;5073076;28;20063;-44
2023/08/18 05:50:33;;;;;;;8.38;5.38;;;;;;;21.33;72.76;101812.50;5071211;28;20103;-45
2023/08/18 05:53:01;;;;;;;7.32;5.00;;;;;;;21.73;71.18;101808.25;5073055;28;20086;-45
2023/08/18 05:55:27;;;;;;;7.28;5.15;;;;;;;21.68;71.22;101814.56;5072000;28;20036;-44
2023/08/18 05:57:54;;;;;;;9.02;5.50;;;;;;;21.53;71.97;101822.78;5073423;28;20578;-45
2023/08/18 06:00:20;;;;;;;8.32;5.70;;;;;;;21.37;72.30;101808.88;5071412;28;20098;-48
2023/08/18 06:02:45;;;;;;;8.93;5.47;;;;;;;21.62;71.60;101814.66;5072816;28;20033;-45
2023/08/18 06:05:11;;;;;;;7.97;5.38;;;;;;;21.86;70.93;101819.53;5072304;28;20124;-48
2023/08/18 06:07:37;;;;;;;7.20;5.20;;;;;;;21.96;70.90;101812.28;5073419;28;20056;-48
2023/08/18 06:10:03;;;;;;;8.38;5.50;;;;;;;21.82;71.19;101823.16;5074894;28;20076;-46
2023/08/18 06:12:28;;;;;;;8.20;5.43;;;;;;;22.10;70.49;101815.56;5075824;28;20086;-45
2023/08/18 06:14:53;;;;;;;9.07;5.45;;;;;;;22.01;70.45;101813.13;5076001;28;20033;-44
2023/08/18 06:17:19;;;;;;;7.88;5.40;;;;;;;22.10;70.25;101819.09;5080243;28;20032;-46
2023/08/18 06:19:44;;;;;;;9.40;6.18;;;;;;;21.78;71.00;101816.13;5094392;28;20057;-48
2023/08/18 06:22:09;;;;;;;8.07;5.32;;;;;;;22.27;69.83;101818.78;5090016;28;20059;-49
2023/08/18 06:24:35;;;;;;;8.23;5.80;;;;;;;22.11;70.11;101820.00;5079573;28;20067;-45
2023/08/18 06:27:00;;;;;;;7.15;5.10;;;;;;;22.56;68.61;101810.22;5074024;28;20040;-46
2023/08/18 06:29:25;;;;;;;11.13;6.05;;;;;;;22.35;68.73;101813.31;5072266;28;20082;-46
2023/08/18 06:31:51;;;;;;;10.00;5.65;;;;;;;22.38;68.82;101814.16;5072212;28;20428;-46
2023/08/18 06:34:16;;;;;;;8.68;5.88;;;;;;;22.56;68.16;101810.22;5071179;28;20115;-48
2023/08/18 06:36:41;;;;;;;7.20;5.30;;;;;;;22.56;68.95;101813.75;5071198;28;20028;-45
2023/08/18 06:39:08;;;;;;;8.52;6.25;;;;;;;22.57;68.43;101810.16;5070755;28;20042;-48
2023/08/18 06:41:37;;;;;;;10.60;6.43;;;;;;;22.54;68.05;101814.69;5071422;28;20505;-45
2023/08/18 06:44:03;;;;;;;8.40;6.05;;;;;;;22.39;68.65;101822.97;5071488;28;20071;-46
2023/08/18 06:46:28;;;;;;;10.82;6.18;;;;;;;22.52;68.36;101822.69;5071412;28;20035;-45
2023/08/18 06:48:53;;;;;;;10.23;6.43;;;;;;;22.50;69.04;101819.19;5071704;28;20406;-44
2023/08/18 06:51:19;;;;;;;10.50;6.70;;;;;;;22.76;68.22;101820.44;5071061;28;20486;-48
2023/08/18 06:53:44;;;;;;;12.13;5.95;;;;;;;22.86;68.25;101822.00;5070947;28;20582;-43
2023/08/18 06:56:09;;;;;;;8.00;6.10;;;;;;;22.83;68.02;101819.41;5070942;28;20115;-48
2023/08/18 06:58:35;;;;;;;10.80;6.40;;;;;;;22.91;68.09;101826.31;5071168;28;20116;-48
2023/08/18 07:01:00;;;;;;;11.73;6.90;;;;;;;23.02;67.91;101820.72;5071393;28;20032;-47
2023/08/18 07:03:25;;;;;;;8.00;5.97;;;;;;;23.24;66.62;101821.09;5069465;28;20033;-49
2023/08/18 07:05:51;;;;;;;10.90;6.88;;;;;;;23.44;65.87;101826.81;5070746;28;20037;-44
2023/08/18 07:08:16;;;;;;;9.38;6.00;;;;;;;23.51;65.96;101827.56;5070714;28;20043;-46
2023/08/18 07:10:42;;;;;;;11.02;6.55;;;;;;;23.65;65.67;101823.66;5070934;28;20035;-47
2023/08/18 07:13:07;;;;;;;10.27;6.40;;;;;;;23.84;65.00;101822.28;5070649;28;20035;-48
2023/08/18 07:15:33;;;;;;;10.13;6.28;;;;;;;23.94;65.11;101825.53;5070000;28;20024;-44
2023/08/18 07:17:58;;;;;;;10.43;6.68;;;;;;;24.15;64.13;101811.63;5071245;28;20040;-48
2023/08/18 07:20:23;;;;;;;9.68;6.50;;;;;;;24.29;63.97;101803.28;5070395;28;20563;-44
2023/08/18 07:22:49;;;;;;;9.60;6.80;;;;;;;24.17;63.39;101811.59;5070820;28;20033;-48
2023/08/18 07:25:14;;;;;;;10.82;7.15;;;;;;;23.63;64.36;101816.63;5069858;28;20098;-44
2023/08/18 07:27:39;;;;;;;9.45;6.13;;;;;;;24.17;64.02;101804.47;5071185;28;20029;-46
2023/08/18 07:30:06;;;;;;;10.00;6.88;;;;;;;24.23;63.48;101806.13;5070833;28;20525;-50
2023/08/18 07:32:31;;;;;;;9.55;7.10;;;;;;;24.24;63.34;101805.22;5070411;28;20036;-46
2023/08/18 07:34:57;;;;;;;10.30;7.20;;;;;;;24.22;62.40;101796.38;5070137;28;20474;-44
2023/08/18 07:37:22;;;;;;;12.27;7.50;;;;;;;24.45;62.44;101801.94;5070344;28;20041;-44
2023/08/18 07:39:47;;;;;;;10.88;7.20;;;;;;;24.30;63.17;101798.81;5070225;28;20036;-47
2023/08/18 07:42:12;;;;;;;14.55;8.07;;;;;;;24.40;61.99;101794.97;5070010;28;20534;-43
2023/08/18 07:44:38;;;;;;;10.93;7.25;;;;;;;24.49;61.71;101798.25;5069845;28;20399;-45
2023/08/18 07:47:03;;;;;;;10.48;7.47;;;;;;;25.02;61.15;101788.63;5070167;28;20036;-44
2023/08/18 07:49:29;;;;;;;11.27;7.22;;;;;;;25.88;58.57;101791.97;5069849;28;21663;-45
2023/08/18 07:51:54;;;;;;;13.93;8.25;;;;;;;26.09;55.57;101782.31;5070475;28;20095;-47
2023/08/18 07:54:20;;;;;;;10.90;8.30;;;;;;;26.28;56.42;101772.72;5069279;28;20044;-46
2023/08/18 07:56:45;;;;;;;13.75;9.25;;;;;;;27.11;53.26;101770.34;5070382;28;20033;-46
2023/08/18 07:59:10;;;;;;;12.38;8.50;;;;;;;27.62;52.54;101762.84;5069520;28;20090;-49
2023/08/18 08:01:36;;;;;;;11.20;8.43;;;;;;;28.82;48.98;101764.50;5070164;28;20038;-47
2023/08/18 08:04:01;;;;;;;12.27;9.10;;;;;;;29.23;46.32;101762.44;5069588;28;20097;-49
2023/08/18 08:06:26;;;;;;;11.57;7.80;;;;;;;30.10;45.97;101769.59;5069593;28;20048;-48
2023/08/18 08:08:52;;;;;;;12.05;7.88;;;;;;;30.40;44.17;101770.59;5070005;28;20037;-46
2023/08/18 08:11:17;;;;;;;12.60;8.70;;;;;;;29.48;45.52;101771.03;5069207;28;20040;-48
2023/08/18 08:13:44;;;;;;;12.77;8.73;;;;;;;28.87;47.65;101770.50;5069300;28;20090;-49
2023/08/18 08:16:09;;;;;;;11.65;8.73;;;;;;;28.71;48.17;101783.78;5070079;28;20025;-47
2023/08/18 08:18:34;;;;;;;12.88;9.38;;;;;;;28.12;49.31;101782.00;5059891;28;20024;-46
2023/08/18 08:21:03;;;;;;;12.38;8.32;;;;;;;28.24;49.88;101791.34;5054350;28;20575;-47
2023/08/18 08:23:28;;;;;;;13.55;9.32;;;;;;;27.74;50.84;101772.16;5047960;28;20033;-48
2023/08/18 08:25:53;;;;;;;14.50;10.10;;;;;;;27.33;52.31;101771.19;5049443;28;20108;-47
2023/08/18 08:28:19;;;;;;;17.23;10.63;;;;;;;27.20;52.46;101770.00;5049172;28;20032;-49
2023/08/18 08:30:44;;;;;;;16.83;10.98;;;;;;;27.01;53.88;101768.06;5049342;28;20462;-45
2023/08/18 08:33:11;;;;;;;14.88;9.98;;;;;;;27.04;53.81;101769.72;5048841;28;20526;-48
2023/08/18 08:35:36;;;;;;;17.13;10.98;;;;;;;26.75;53.99;101780.72;5048772;28;20032;-48
2023/08/18 08:38:02;;;;;;;16.77;10.63;;;;;;;26.75;54.88;101781.59;5049474;28;20120;-49
2023/08/18 08:40:28;;;;;;;17.30;10.45;;;;;;;26.97;54.52;101789.66;5048829;28;20044;-45
2023/08/18 08:42:53;;;;;;;16.00;10.68;;;;;;;26.73;55.38;101786.09;5049530;28;20037;-45
2023/08/18 08:45:20;;;;;;;16.85;10.52;;;;;;;26.79;54.93;101793.03;5048577;28;20053;-44
2023/08/18 08:47:48;;;;;;;18.60;11.70;;;;;;;26.33;55.88;101788.59;5049605;28;20037;-46
2023/08/18 08:50:16;;;;;;;17.50;11.07;;;;;;;26.59;55.61;101785.81;5049057;28;20032;-46
2023/08/18 08:52:42;;;;;;;17.08;10.48;;;;;;;26.75;55.60;101796.75;5050604;28;20127;-49
2023/08/18 08:55:08;;;;;;;17.52;11.60;;;;;;;26.76;54.80;101802.06;5051037;28;20591;-47
2023/08/18 08:57:34;;;;;;;16.52;11.18;;;;;;;26.74;55.02;101803.91;5051943;28;20033;-50
2023/08/18 09:00:00;;;;;;;17.23;11.85;;;;;;;26.03;56.93;101793.22;5049559;28;20044;-45
2023/08/18 09:02:26;;;;;;;17.02;11.90;;;;;;;26.22;56.71;101807.66;5049084;28;20037;-44
2023/08/18 09:04:51;;;;;;;16.58;10.95;;;;;;;26.40;56.70;101799.00;5049429;28;20402;-45
2023/08/18 09:07:16;;;;;;;17.35;11.40;;;;;;;26.66;56.34;101797.97;5049803;28;20116;-43
2023/08/18 09:09:42;;;;;;;16.90;10.70;;;;;;;26.53;56.43;101791.38;5049496;28;20068;-45
2023/08/18 09:12:10;;;;;;;17.92;12.80;;;;;;;26.61;55.49;101799.97;5048966;28;20052;-47
2023/08/18 09:14:39;;;;;;;15.65;11.32;;;;;;;26.82;54.72;101803.63;5048452;28;20033;-44
2023/08/18 09:17:05;;;;;;;16.33;11.40;;;;;;;27.09;55.09;101807.00;5049713;28;20395;-47
2023/08/18 09:19:31;;;;;;;16.33;12.30;;;;;;;26.90;54.96;101796.16;5049210;28;20033;-44
2023/08/18 09:22:03;;;;;;;14.23;10.60;;;;;;;27.51;54.10;101802.59;5049382;28;20517;-46
2023/08/18 09:24:31;;;;;;;16.48;11.70;;;;;;;27.54;53.05;101801.59;5048704;28;20047;-44
2023/08/18 09:27:12;;;;;;;15.88;11.20;;;;;;;27.94;51.25;101798.91;5053409;28;20040;-50
2023/08/18 09:29:37;;;;;;;16.42;12.02;;;;;;;27.92;52.16;101792.78;5071977;28;20040;-43
2023/08/18 09:32:03;;;;;;;15.52;11.52;;;;;;;27.96;51.81;101786.34;5072337;28;20495;-49
2023/08/18 09:34:31;;;;;;;18.67;13.20;;;;;;;27.92;52.14;101774.03;5069888;28;20047;-45
2023/08/18 09:36:57;;;;;;;15.77;11.98;;;;;;;27.99;52.81;101771.94;5069251;28;20702;-44
2023/08/18 09:39:25;;;;;;;19.70;12.95;;;;;;;27.57;53.54;101777.38;5068756;28;20044;-47
2023/08/18 09:41:53;;;;;;;17.98;11.90;;;;;;;27.80;53.14;101774.56;5066686;28;20411;-46
2023/08/18 09:44:20;;;;;;;19.48;12.98;;;;;;;27.91;52.49;101776.75;5066942;28;20036;-43
2023/08/18 09:46:54;;;;;;;16.95;12.43;;;;;;;28.07;51.98;101775.13;5068930;28;20067;-48
2023/08/18 09:49:21;;;;;;;15.60;11.27;;;;;;;28.14;53.64;101781.97;5068379;28;20081;-49
2023/08/18 09:51:51;;;;;;;17.45;12.57;;;;;;;28.22;52.53;101775.34;5068634;28;20559;-48
2023/08/18 09:54:19;;;;;;;17.77;13.00;;;;;;;28.43;50.38;101773.47;5067638;28;20041;-46
2023/08/18 09:56:46;;;;;;;17.08;12.23;;;;;;;28.40;52.07;101776.31;5068819;28;20036;-45
2023/08/18 09:59:23;;;;;;;18.65;12.85;;;;;;;28.61;50.69;101769.03;5068157;28;20039;-48
2023/08/18 10:01:49;;;;;;;18.60;12.90;;;;;;;28.92;50.99;101761.28;5068660;28;20082;-47
2023/08/18 10:04:23;;;;;;;19.13;12.95;;;;;;;28.75;50.49;101761.25;5067776;28;20241;-44
2023/08/18 10:06:49;;;;;;;;;;;;;;;29.00;50.40;101759.09;5069188;28;20059;-46
2023/08/18 10:09:14;;;;;;;18.55;13.48;;;;;;;28.81;50.34;101752.03;5068300;28;19936;-51
2023/08/18 10:11:40;;;;;;;18.80;13.15;;;;;;;29.05;49.36;101758.88;5071988;28;20055;-44
2023/08/18 10:14:06;;;;;;;18.75;12.35;;;;;;;28.99;50.51;101751.13;5071677;28;20071;-48
2023/08/18 10:16:33;;;;;;;19.67;13.02;;;;;;;28.89;50.12;101752.53;5071979;28;20063;-44
2023/08/18 10:18:58;;;;;;;19.58;14.18;;;;;;;27.87;52.43;101767.13;5073360;28;20383;-45
2023/08/18 10:21:26;;;;;;;18.95;13.23;;;;;;;28.38;52.19;101751.34;5072185;28;20029;-44
2023/08/18 10:23:52;;;;;;;18.85;14.07;;;;;;;28.23;52.49;101747.59;5072412;28;20109;-46
2023/08/18 10:26:17;;;;;;;21.10;14.32;;;;;;;27.89;53.72;101754.50;5071817;28;20037;-46
2023/08/18 10:28:43;;;;;;;17.60;13.38;;;;;;;28.22;52.43;101736.94;5072649;28;20032;-43
2023/08/18 10:31:13;;;;;;;20.98;14.25;;;;;;;27.87;53.12;101735.84;5073580;28;20045;-44
2023/08/18 10:33:43;;;;;;;18.85;13.50;;;;;;;28.08;53.23;101726.81;5051932;28;20048;-44
2023/08/18 10:36:09;;;;;;;23.40;15.35;;;;;;;27.74;53.60;101727.47;5051964;28;20045;-45
2023/08/18 10:38:36;;;;;;;21.42;14.77;;;;;;;27.59;54.58;101724.59;5071358;28;20036;-49
2023/08/18 10:41:03;;;;;;;18.60;14.00;;;;;;;27.34;54.96;101725.63;5071169;28;20698;-48
2023/08/18 10:43:29;;;;;;;21.92;13.70;;;;;;;27.90;54.19;101718.72;5071171;28;20451;-48
2023/08/18 10:45:59;;;;;;;22.05;14.00;;;;;;;28.24;53.24;101726.97;5069591;28;20039;-46
2023/08/18 10:48:34;;;;;;;22.05;13.63;;;;;;;28.36;52.62;101734.44;5069703;28;20123;-46
2023/08/18 10:51:00;;;;;;;20.17;14.52;;;;;;;28.86;51.46;101736.56;5071272;28;20044;-46
2023/08/18 10:53:33;;;;;;;22.17;15.30;;;;;;;28.50;51.86;101734.69;5070620;28;20069;-45
2023/08/18 10:55:59;;;;;;;21.73;14.70;;;;;;;28.74;51.34;101729.09;5070668;28;20250;-46
2023/08/18 10:58:24;;;;;;;22.48;14.88;;;;;;;28.83;51.33;101729.53;5067457;28;20534;-46
2023/08/18 11:00:50;;;;;;;19.50;13.23;;;;;;;29.21;52.44;101716.03;5071068;28;20036;-50
2023/08/18 11:03:15;;;;;;;19.85;13.75;;;;;;;29.36;50.66;101712.56;5069411;28;20494;-46
2023/08/18 11:05:41;;;;;;;19.25;13.15;;;;;;;29.74;49.17;101719.50;5070527;28;20037;-49
2023/08/18 11:08:13;;;;;;;23.33;15.43;;;;;;;29.00;50.75;101713.47;5071054;28;20056;-47
2023/08/18 11:10:39;;;;;;;19.73;13.65;;;;;;;29.58;49.92;101705.09;5070761;28;20032;-45
2023/08/18 11:13:06;;;;;;;21.05;14.68;;;;;;;29.35;50.69;101705.44;5071078;28;20090;-45
2023/08/18 11:15:31;;;;;;;19.52;13.73;;;;;;;29.12;51.73;101689.63;5069803;28;20411;-49